EGPN Airport Information

Runway Information
Runway 09 Length 4593 ft width 98 ft
Elevation 17 ft Threshold ft Heading 91
Runway 27 Length 4593 ft Width 98 ft
Elevation 13 ft Threshold ft Heading 271
Airport Frequencies
Type APP Name APP Frequency 122.9 MHZ
Type TWR Name TWR Frequency 122.9 MHZ
Airport Navaids
Type NDB Name Dundee Frequency 394 KHZ
Airport Weather Information & NOTAM
ADDS - METARS form results

(2301 UTC 04 December 2022)
Data provider http://aviationweather.gov/metar/data/
 
Forecast for: EGPN (DUNDEE/RIVERSIDE, GB)
Text: TAF EGPN 041655Z 0418/0422 05009KT 9999 FEW020
Forecast period: 1800 to 2200 UTC 04 December 2022
Forecast type: FROM: standard forecast or significant change
Winds: from the NE (50 degrees) at 10 MPH (9 knots; 4.6 m/s)
Visibility: 6 or more miles (10+ km)
Ceiling: at least 12,000 feet AGL
Clouds: few clouds at 2000 feet AGL
Weather: no significant weather forecast for this period
Text: TEMPO 0418/0422 4000 SHRA BKN014
Forecast period: 1800 to 2200 UTC 04 December 2022
Forecast type: TEMPORARY: The following changes expected for less than half the time period
Visibility: 2.49 miles (4.01 km)
Ceiling: 1400 feet AGL
Clouds: broken clouds at 1400 feet AGL
Weather: SHRA  (rain showers)